Marraquexe, Marrocos

07:05 AM WEST em 21 de Setembro de 2014 (GMT +0100)
Menara | Change Station
CLOSE
Current Station
Aeroporto
Location: Marrakech,
Altitude: 1529 ft
Estações Meteorológicas Próximas

Elev 1529 ft 31.61 °N, 8.04 °W | Updated 5 minutes ago

Scattered Clouds
Nuvens Dispersas
70 °F
Aparente 70 °F
N
5
Vento Variável Vento de OSO

Hoje
Máxima -- | Mínima -- °F
--% Possibilidade de Precip.
Ontem
Máxima -- | Mínima -- °F
Precip. -- pol
7:19 AM 7:30 PM
Quarto minguante, 8% visible
Pressão 30.01 pol
Visibilidade 6.2 milhas
Nuvens Nuvens Dispersas 2300 ft
Poucas 3000 ft
Nuvens Dispersas 10000 ft
Ponto de Orvalho 64 °F
Humidade 83%
Chuva 0.00 pol
Altura de Neve Não disponível
UV 0 em vez de 12
Pólen Não disponível
Qualidade do Ar Não disponível
Flu Activity Não disponível
METAR GMMX 210600Z 25004KT 9999 SCT023 FEW030CB SCT100 21/18 Q1016 NOSIG

More Conditions Fewer Conditions

Pressão 30.01 pol
Visibilidade 6.2 milhas
Nuvens Nuvens Dispersas 2300 ft
Poucas 3000 ft
Nuvens Dispersas 10000 ft
Ponto de Orvalho 64 °F
Humidade 83%
Chuva 0.00 pol
Altura de Neve Não disponível
UV 0 em vez de 12
Pólen Não disponível
Qualidade do Ar Não disponível
Flu Activity Não disponível
METAR GMMX 210600Z 25004KT 9999 SCT023 FEW030CB SCT100 21/18 Q1016 NOSIG

More Conditions Fewer Conditions

10-Day Weather Forecast

Almanac

Astronomia

Sep. 21, 2014 Nascer Pôr
Hora atual 07:19 WEST 19:30 WEST
Crepúsculo civil 06:55 WEST 19:54 WEST
Crepúsculo náutico 06:26 WEST 20:22 WEST
Crepúsculo astronómico 05:58 WEST 20:51 WEST
Lua 04:48 WEST 17:53 WEST
Comprimento da luz visível 12h 59m
Duração do Dia
12h 10m
Tomorrow will be 1m 54s shorter.
Quarto minguante, 8% of the Moon is Illuminated
Hoje
Quarto minguante
Set 24
Nova
Out 1
Quarto crescente
Out 8
Lua cheia
Out 15
Quarto minguante

Extremos de ontem

Altitude na localidade Altura mais baixa na localidade

Community

WunderPhotos

Upload Photos

1,755,098 fotografias inseridas!

Nearby

Actividade Sísmisca

Cidade Distância Mag. Hora & Data
Não há notícias de atividade sísmica recente perto de si.
Mínima magnitude apresentada é 2.5.

Temperaturas das Águas Costeiras

Local Temperatura
Não há estações a reportar dados

Estações Meteorológicas Próximas